sensor_id;sensor_type;location;lat;lon;timestamp;P1;durP1;ratioP1;P2;durP2;ratioP2
20956;SDS011;10637;47.970;7.830;2023-09-19T00:02:56;8.30;;;1.70;;
20956;SDS011;10637;47.970;7.830;2023-09-19T00:08:01;9.70;;;1.80;;
20956;SDS011;10637;47.970;7.830;2023-09-19T00:13:06;7.30;;;1.57;;
20956;SDS011;10637;47.970;7.830;2023-09-19T00:18:09;6.50;;;1.40;;
20956;SDS011;10637;47.970;7.830;2023-09-19T00:23:11;7.87;;;1.40;;
20956;SDS011;10637;47.970;7.830;2023-09-19T00:28:13;8.77;;;1.70;;
20956;SDS011;10637;47.970;7.830;2023-09-19T00:33:15;5.47;;;1.27;;
20956;SDS011;10637;47.970;7.830;2023-09-19T00:38:18;4.97;;;1.30;;
20956;SDS011;10637;47.970;7.830;2023-09-19T00:43:23;4.20;;;1.10;;
20956;SDS011;10637;47.970;7.830;2023-09-19T00:48:26;5.60;;;1.20;;
20956;SDS011;10637;47.970;7.830;2023-09-19T00:53:30;5.03;;;1.00;;
20956;SDS011;10637;47.970;7.830;2023-09-19T00:58:32;5.17;;;1.20;;
20956;SDS011;10637;47.970;7.830;2023-09-19T01:09:59;4.20;;;1.00;;
20956;SDS011;10637;47.970;7.830;2023-09-19T01:15:04;4.93;;;1.03;;
20956;SDS011;10637;47.970;7.830;2023-09-19T01:31:24;4.20;;;1.10;;
20956;SDS011;10637;47.970;7.830;2023-09-19T01:36:36;3.03;;;0.90;;
20956;SDS011;10637;47.970;7.830;2023-09-19T01:41:54;4.17;;;1.00;;
20956;SDS011;10637;47.970;7.830;2023-09-19T01:47:11;5.47;;;0.90;;
20956;SDS011;10637;47.970;7.830;2023-09-19T01:52:28;6.37;;;1.23;;
20956;SDS011;10637;47.970;7.830;2023-09-19T01:57:35;5.20;;;1.33;;
20956;SDS011;10637;47.970;7.830;2023-09-19T02:02:45;7.53;;;1.27;;
20956;SDS011;10637;47.970;7.830;2023-09-19T02:07:51;4.37;;;0.97;;
20956;SDS011;10637;47.970;7.830;2023-09-19T02:12:54;5.63;;;1.10;;
20956;SDS011;10637;47.970;7.830;2023-09-19T02:17:56;5.67;;;1.20;;
20956;SDS011;10637;47.970;7.830;2023-09-19T02:22:58;7.60;;;1.20;;
20956;SDS011;10637;47.970;7.830;2023-09-19T02:28:00;5.70;;;1.17;;
20956;SDS011;10637;47.970;7.830;2023-09-19T02:33:04;4.93;;;1.10;;
20956;SDS011;10637;47.970;7.830;2023-09-19T02:38:07;4.03;;;0.87;;
20956;SDS011;10637;47.970;7.830;2023-09-19T02:43:08;6.90;;;1.33;;
20956;SDS011;10637;47.970;7.830;2023-09-19T02:48:11;4.73;;;1.10;;
20956;SDS011;10637;47.970;7.830;2023-09-19T02:53:13;4.70;;;1.10;;
20956;SDS011;10637;47.970;7.830;2023-09-19T02:58:15;6.23;;;1.20;;
20956;SDS011;10637;47.970;7.830;2023-09-19T03:03:17;4.93;;;1.23;;
20956;SDS011;10637;47.970;7.830;2023-09-19T03:08:19;6.37;;;1.27;;
20956;SDS011;10637;47.970;7.830;2023-09-19T03:13:21;6.87;;;1.23;;
20956;SDS011;10637;47.970;7.830;2023-09-19T03:18:22;6.60;;;1.20;;
20956;SDS011;10637;47.970;7.830;2023-09-19T03:23:25;4.67;;;1.20;;
20956;SDS011;10637;47.970;7.830;2023-09-19T03:28:28;6.47;;;1.20;;
20956;SDS011;10637;47.970;7.830;2023-09-19T03:33:30;5.80;;;1.10;;
20956;SDS011;10637;47.970;7.830;2023-09-19T03:38:34;4.97;;;1.10;;
20956;SDS011;10637;47.970;7.830;2023-09-19T03:43:36;6.53;;;1.30;;
20956;SDS011;10637;47.970;7.830;2023-09-19T03:48:38;6.33;;;1.40;;
20956;SDS011;10637;47.970;7.830;2023-09-19T03:53:40;5.67;;;1.60;;
20956;SDS011;10637;47.970;7.830;2023-09-19T03:58:42;4.73;;;1.27;;
20956;SDS011;10637;47.970;7.830;2023-09-19T04:03:44;7.07;;;1.30;;
20956;SDS011;10637;47.970;7.830;2023-09-19T04:08:49;9.03;;;1.50;;
20956;SDS011;10637;47.970;7.830;2023-09-19T04:13:51;7.97;;;1.50;;
20956;SDS011;10637;47.970;7.830;2023-09-19T04:18:53;6.83;;;1.50;;
20956;SDS011;10637;47.970;7.830;2023-09-19T04:23:54;6.87;;;1.57;;
20956;SDS011;10637;47.970;7.830;2023-09-19T04:28:56;5.70;;;1.23;;
20956;SDS011;10637;47.970;7.830;2023-09-19T04:33:58;6.53;;;1.57;;
20956;SDS011;10637;47.970;7.830;2023-09-19T04:39:06;7.47;;;1.60;;
20956;SDS011;10637;47.970;7.830;2023-09-19T04:44:08;4.53;;;1.00;;
20956;SDS011;10637;47.970;7.830;2023-09-19T04:49:10;7.03;;;1.33;;
20956;SDS011;10637;47.970;7.830;2023-09-19T04:54:12;6.10;;;1.60;;
20956;SDS011;10637;47.970;7.830;2023-09-19T04:59:14;6.13;;;1.30;;
20956;SDS011;10637;47.970;7.830;2023-09-19T05:04:16;6.30;;;1.20;;
20956;SDS011;10637;47.970;7.830;2023-09-19T05:09:18;6.17;;;1.43;;
20956;SDS011;10637;47.970;7.830;2023-09-19T05:14:21;7.20;;;1.50;;
20956;SDS011;10637;47.970;7.830;2023-09-19T05:19:23;8.83;;;1.50;;
20956;SDS011;10637;47.970;7.830;2023-09-19T05:24:25;10.10;;;1.67;;
20956;SDS011;10637;47.970;7.830;2023-09-19T05:29:27;8.63;;;1.40;;
20956;SDS011;10637;47.970;7.830;2023-09-19T05:34:30;7.23;;;1.40;;
20956;SDS011;10637;47.970;7.830;2023-09-19T05:39:32;10.10;;;1.50;;
20956;SDS011;10637;47.970;7.830;2023-09-19T05:44:34;6.47;;;1.37;;
20956;SDS011;10637;47.970;7.830;2023-09-19T05:49:37;7.27;;;1.30;;
20956;SDS011;10637;47.970;7.830;2023-09-19T05:54:42;8.50;;;1.50;;
20956;SDS011;10637;47.970;7.830;2023-09-19T05:59:44;7.57;;;1.70;;
20956;SDS011;10637;47.970;7.830;2023-09-19T06:04:45;6.63;;;1.23;;
20956;SDS011;10637;47.970;7.830;2023-09-19T06:09:47;5.87;;;1.30;;
20956;SDS011;10637;47.970;7.830;2023-09-19T06:14:49;5.53;;;1.40;;
20956;SDS011;10637;47.970;7.830;2023-09-19T06:19:51;7.63;;;1.50;;
20956;SDS011;10637;47.970;7.830;2023-09-19T06:24:53;13.60;;;1.70;;
20956;SDS011;10637;47.970;7.830;2023-09-19T06:29:54;9.57;;;1.87;;
20956;SDS011;10637;47.970;7.830;2023-09-19T06:34:56;7.57;;;1.33;;
20956;SDS011;10637;47.970;7.830;2023-09-19T06:40:00;6.87;;;1.40;;
20956;SDS011;10637;47.970;7.830;2023-09-19T06:45:03;6.43;;;1.40;;
20956;SDS011;10637;47.970;7.830;2023-09-19T06:50:06;5.67;;;1.70;;
20956;SDS011;10637;47.970;7.830;2023-09-19T06:55:14;6.03;;;1.30;;
20956;SDS011;10637;47.970;7.830;2023-09-19T07:00:17;10.63;;;1.60;;
20956;SDS011;10637;47.970;7.830;2023-09-19T07:05:25;6.90;;;1.40;;
20956;SDS011;10637;47.970;7.830;2023-09-19T07:10:32;5.33;;;1.23;;
20956;SDS011;10637;47.970;7.830;2023-09-19T07:15:35;7.13;;;1.20;;
20956;SDS011;10637;47.970;7.830;2023-09-19T07:20:43;5.53;;;1.33;;
20956;SDS011;10637;47.970;7.830;2023-09-19T07:25:50;6.10;;;1.30;;
20956;SDS011;10637;47.970;7.830;2023-09-19T07:30:52;7.10;;;1.60;;
20956;SDS011;10637;47.970;7.830;2023-09-19T07:35:53;6.10;;;1.17;;
20956;SDS011;10637;47.970;7.830;2023-09-19T07:41:02;6.83;;;1.30;;
20956;SDS011;10637;47.970;7.830;2023-09-19T07:46:04;7.27;;;1.63;;
20956;SDS011;10637;47.970;7.830;2023-09-19T07:51:08;10.67;;;1.57;;
20956;SDS011;10637;47.970;7.830;2023-09-19T07:56:10;6.57;;;1.50;;
20956;SDS011;10637;47.970;7.830;2023-09-19T08:01:12;8.70;;;1.60;;
20956;SDS011;10637;47.970;7.830;2023-09-19T08:06:15;5.20;;;1.10;;
20956;SDS011;10637;47.970;7.830;2023-09-19T08:11:20;5.90;;;1.50;;
20956;SDS011;10637;47.970;7.830;2023-09-19T08:16:22;5.97;;;1.30;;
20956;SDS011;10637;47.970;7.830;2023-09-19T08:21:26;9.83;;;1.70;;
20956;SDS011;10637;47.970;7.830;2023-09-19T08:26:31;4.97;;;1.30;;
20956;SDS011;10637;47.970;7.830;2023-09-19T08:31:33;6.27;;;1.40;;
20956;SDS011;10637;47.970;7.830;2023-09-19T08:36:35;6.43;;;1.40;;
20956;SDS011;10637;47.970;7.830;2023-09-19T08:41:38;7.70;;;1.40;;
20956;SDS011;10637;47.970;7.830;2023-09-19T08:46:41;8.37;;;1.50;;
20956;SDS011;10637;47.970;7.830;2023-09-19T08:51:45;6.97;;;1.63;;
20956;SDS011;10637;47.970;7.830;2023-09-19T08:56:49;8.63;;;1.70;;
20956;SDS011;10637;47.970;7.830;2023-09-19T09:01:53;8.87;;;1.50;;
20956;SDS011;10637;47.970;7.830;2023-09-19T09:06:57;8.80;;;1.70;;
20956;SDS011;10637;47.970;7.830;2023-09-19T09:11:59;6.87;;;1.50;;
20956;SDS011;10637;47.970;7.830;2023-09-19T09:17:04;7.37;;;1.90;;
20956;SDS011;10637;47.970;7.830;2023-09-19T09:22:06;9.80;;;1.90;;
20956;SDS011;10637;47.970;7.830;2023-09-19T09:27:12;7.87;;;1.90;;
20956;SDS011;10637;47.970;7.830;2023-09-19T09:37:30;10.33;;;1.80;;
20956;SDS011;10637;47.970;7.830;2023-09-19T09:42:33;6.33;;;1.50;;
20956;SDS011;10637;47.970;7.830;2023-09-19T09:47:43;8.60;;;1.53;;
20956;SDS011;10637;47.970;7.830;2023-09-19T09:52:59;7.80;;;1.67;;
20956;SDS011;10637;47.970;7.830;2023-09-19T09:58:17;6.60;;;1.70;;
20956;SDS011;10637;47.970;7.830;2023-09-19T10:03:20;6.27;;;1.43;;
20956;SDS011;10637;47.970;7.830;2023-09-19T10:08:24;8.57;;;1.60;;
20956;SDS011;10637;47.970;7.830;2023-09-19T10:13:32;7.53;;;1.30;;
20956;SDS011;10637;47.970;7.830;2023-09-19T10:18:38;8.07;;;1.67;;
20956;SDS011;10637;47.970;7.830;2023-09-19T10:23:41;7.20;;;1.43;;
20956;SDS011;10637;47.970;7.830;2023-09-19T10:28:46;7.23;;;1.40;;
20956;SDS011;10637;47.970;7.830;2023-09-19T10:33:51;7.00;;;1.50;;
20956;SDS011;10637;47.970;7.830;2023-09-19T10:38:54;6.33;;;1.50;;
20956;SDS011;10637;47.970;7.830;2023-09-19T10:43:59;6.50;;;1.57;;
20956;SDS011;10637;47.970;7.830;2023-09-19T10:49:04;8.80;;;1.70;;
20956;SDS011;10637;47.970;7.830;2023-09-19T10:54:13;6.60;;;1.60;;
20956;SDS011;10637;47.970;7.830;2023-09-19T10:59:19;6.63;;;1.50;;
20956;SDS011;10637;47.970;7.830;2023-09-19T11:04:30;6.77;;;1.63;;
20956;SDS011;10637;47.970;7.830;2023-09-19T11:14:49;7.70;;;1.83;;
20956;SDS011;10637;47.970;7.830;2023-09-19T11:31:40;8.00;;;1.40;;
20956;SDS011;10637;47.970;7.830;2023-09-19T11:36:26;6.43;;;1.40;;
20956;SDS011;10637;47.970;7.830;2023-09-19T11:41:38;7.53;;;1.67;;
20956;SDS011;10637;47.970;7.830;2023-09-19T11:47:14;7.80;;;1.70;;
20956;SDS011;10637;47.970;7.830;2023-09-19T11:52:10;7.43;;;1.53;;
20956;SDS011;10637;47.970;7.830;2023-09-19T11:57:23;5.67;;;1.40;;
20956;SDS011;10637;47.970;7.830;2023-09-19T12:02:38;5.53;;;1.30;;
20956;SDS011;10637;47.970;7.830;2023-09-19T12:07:43;7.30;;;1.57;;
20956;SDS011;10637;47.970;7.830;2023-09-19T12:12:49;6.73;;;1.47;;
20956;SDS011;10637;47.970;7.830;2023-09-19T12:17:53;6.80;;;1.50;;
20956;SDS011;10637;47.970;7.830;2023-09-19T12:22:56;6.10;;;1.53;;
20956;SDS011;10637;47.970;7.830;2023-09-19T12:27:57;5.20;;;1.37;;
20956;SDS011;10637;47.970;7.830;2023-09-19T12:33:00;6.50;;;1.60;;
20956;SDS011;10637;47.970;7.830;2023-09-19T12:38:04;7.67;;;1.43;;
20956;SDS011;10637;47.970;7.830;2023-09-19T12:43:07;6.20;;;1.60;;
20956;SDS011;10637;47.970;7.830;2023-09-19T12:48:23;6.47;;;1.60;;
20956;SDS011;10637;47.970;7.830;2023-09-19T12:53:56;7.20;;;1.30;;
20956;SDS011;10637;47.970;7.830;2023-09-19T12:58:58;6.03;;;1.50;;
20956;SDS011;10637;47.970;7.830;2023-09-19T13:04:10;6.87;;;1.40;;
20956;SDS011;10637;47.970;7.830;2023-09-19T13:09:19;6.03;;;1.57;;
20956;SDS011;10637;47.970;7.830;2023-09-19T13:14:23;7.53;;;1.33;;
20956;SDS011;10637;47.970;7.830;2023-09-19T13:24:36;5.90;;;1.40;;
20956;SDS011;10637;47.970;7.830;2023-09-19T13:29:41;8.07;;;1.40;;
20956;SDS011;10637;47.970;7.830;2023-09-19T13:34:43;5.23;;;1.30;;
20956;SDS011;10637;47.970;7.830;2023-09-19T13:39:44;5.83;;;1.53;;
20956;SDS011;10637;47.970;7.830;2023-09-19T13:44:48;5.00;;;1.10;;
20956;SDS011;10637;47.970;7.830;2023-09-19T13:49:50;6.00;;;1.40;;
20956;SDS011;10637;47.970;7.830;2023-09-19T13:54:54;6.10;;;1.30;;
20956;SDS011;10637;47.970;7.830;2023-09-19T13:59:57;5.17;;;1.07;;
20956;SDS011;10637;47.970;7.830;2023-09-19T14:04:59;4.40;;;1.20;;
20956;SDS011;10637;47.970;7.830;2023-09-19T14:10:01;5.97;;;1.67;;
20956;SDS011;10637;47.970;7.830;2023-09-19T14:15:07;4.80;;;1.20;;
20956;SDS011;10637;47.970;7.830;2023-09-19T14:20:09;6.87;;;1.30;;
20956;SDS011;10637;47.970;7.830;2023-09-19T14:25:12;4.33;;;1.10;;
20956;SDS011;10637;47.970;7.830;2023-09-19T14:30:14;5.23;;;1.27;;
20956;SDS011;10637;47.970;7.830;2023-09-19T14:35:16;5.77;;;1.50;;
20956;SDS011;10637;47.970;7.830;2023-09-19T14:40:18;8.33;;;1.70;;
20956;SDS011;10637;47.970;7.830;2023-09-19T14:45:21;6.53;;;2.00;;
20956;SDS011;10637;47.970;7.830;2023-09-19T14:50:23;7.30;;;1.40;;
20956;SDS011;10637;47.970;7.830;2023-09-19T14:55:25;5.93;;;1.43;;
20956;SDS011;10637;47.970;7.830;2023-09-19T15:00:28;6.13;;;1.30;;
20956;SDS011;10637;47.970;7.830;2023-09-19T15:05:30;6.53;;;1.57;;
20956;SDS011;10637;47.970;7.830;2023-09-19T15:10:32;5.70;;;1.60;;
20956;SDS011;10637;47.970;7.830;2023-09-19T15:15:34;5.70;;;1.20;;
20956;SDS011;10637;47.970;7.830;2023-09-19T15:20:36;6.63;;;1.50;;
20956;SDS011;10637;47.970;7.830;2023-09-19T15:25:47;6.43;;;1.53;;
20956;SDS011;10637;47.970;7.830;2023-09-19T15:31:01;8.77;;;1.53;;
20956;SDS011;10637;47.970;7.830;2023-09-19T15:36:08;5.53;;;1.50;;
20956;SDS011;10637;47.970;7.830;2023-09-19T15:41:14;9.50;;;3.27;;
20956;SDS011;10637;47.970;7.830;2023-09-19T15:46:16;6.90;;;1.70;;
20956;SDS011;10637;47.970;7.830;2023-09-19T15:51:18;6.63;;;1.80;;
20956;SDS011;10637;47.970;7.830;2023-09-19T15:56:20;5.97;;;1.67;;
20956;SDS011;10637;47.970;7.830;2023-09-19T16:01:24;5.70;;;1.60;;
20956;SDS011;10637;47.970;7.830;2023-09-19T16:06:27;8.07;;;1.43;;
20956;SDS011;10637;47.970;7.830;2023-09-19T16:11:32;7.40;;;1.33;;
20956;SDS011;10637;47.970;7.830;2023-09-19T16:16:35;6.13;;;1.50;;
20956;SDS011;10637;47.970;7.830;2023-09-19T16:21:38;6.03;;;1.47;;
20956;SDS011;10637;47.970;7.830;2023-09-19T16:26:42;5.37;;;1.30;;
20956;SDS011;10637;47.970;7.830;2023-09-19T16:31:43;7.50;;;1.63;;
20956;SDS011;10637;47.970;7.830;2023-09-19T16:36:46;5.80;;;1.43;;
20956;SDS011;10637;47.970;7.830;2023-09-19T16:41:47;7.57;;;1.77;;
20956;SDS011;10637;47.970;7.830;2023-09-19T16:46:49;7.57;;;1.57;;
20956;SDS011;10637;47.970;7.830;2023-09-19T16:51:51;6.73;;;1.60;;
20956;SDS011;10637;47.970;7.830;2023-09-19T16:56:53;7.87;;;1.50;;
20956;SDS011;10637;47.970;7.830;2023-09-19T17:01:54;7.97;;;1.83;;
20956;SDS011;10637;47.970;7.830;2023-09-19T17:06:58;8.80;;;2.07;;
20956;SDS011;10637;47.970;7.830;2023-09-19T17:12:00;8.73;;;2.80;;
20956;SDS011;10637;47.970;7.830;2023-09-19T17:17:04;6.77;;;1.43;;
20956;SDS011;10637;47.970;7.830;2023-09-19T17:22:05;8.10;;;1.60;;
20956;SDS011;10637;47.970;7.830;2023-09-19T17:27:07;5.60;;;1.40;;
20956;SDS011;10637;47.970;7.830;2023-09-19T17:32:09;6.43;;;1.60;;
20956;SDS011;10637;47.970;7.830;2023-09-19T17:37:11;8.40;;;1.57;;
20956;SDS011;10637;47.970;7.830;2023-09-19T17:42:13;6.77;;;1.57;;
20956;SDS011;10637;47.970;7.830;2023-09-19T17:47:17;6.63;;;1.70;;
20956;SDS011;10637;47.970;7.830;2023-09-19T17:52:19;5.57;;;1.50;;
20956;SDS011;10637;47.970;7.830;2023-09-19T17:57:21;9.63;;;1.83;;
20956;SDS011;10637;47.970;7.830;2023-09-19T18:02:24;8.20;;;1.87;;
20956;SDS011;10637;47.970;7.830;2023-09-19T18:07:26;8.23;;;2.00;;
20956;SDS011;10637;47.970;7.830;2023-09-19T18:12:28;8.73;;;2.00;;
20956;SDS011;10637;47.970;7.830;2023-09-19T18:17:29;7.47;;;1.97;;
20956;SDS011;10637;47.970;7.830;2023-09-19T18:22:31;9.47;;;2.40;;
20956;SDS011;10637;47.970;7.830;2023-09-19T18:27:34;8.93;;;2.20;;
20956;SDS011;10637;47.970;7.830;2023-09-19T18:32:39;7.97;;;1.97;;
20956;SDS011;10637;47.970;7.830;2023-09-19T18:37:41;8.03;;;2.17;;
20956;SDS011;10637;47.970;7.830;2023-09-19T18:42:43;11.13;;;2.30;;
20956;SDS011;10637;47.970;7.830;2023-09-19T18:47:45;7.73;;;2.13;;
20956;SDS011;10637;47.970;7.830;2023-09-19T18:52:49;7.83;;;1.80;;
20956;SDS011;10637;47.970;7.830;2023-09-19T18:57:52;8.60;;;2.30;;
20956;SDS011;10637;47.970;7.830;2023-09-19T19:02:54;9.97;;;1.97;;
20956;SDS011;10637;47.970;7.830;2023-09-19T19:07:56;8.60;;;2.10;;
20956;SDS011;10637;47.970;7.830;2023-09-19T19:12:58;7.87;;;2.33;;
20956;SDS011;10637;47.970;7.830;2023-09-19T19:18:02;9.23;;;2.10;;
20956;SDS011;10637;47.970;7.830;2023-09-19T19:23:04;8.93;;;1.97;;
20956;SDS011;10637;47.970;7.830;2023-09-19T19:28:06;7.90;;;1.97;;
20956;SDS011;10637;47.970;7.830;2023-09-19T19:33:09;8.63;;;1.80;;
20956;SDS011;10637;47.970;7.830;2023-09-19T19:38:11;13.10;;;3.10;;
20956;SDS011;10637;47.970;7.830;2023-09-19T19:43:14;7.77;;;2.20;;
20956;SDS011;10637;47.970;7.830;2023-09-19T19:48:16;7.87;;;1.73;;
20956;SDS011;10637;47.970;7.830;2023-09-19T19:53:18;7.50;;;1.70;;
20956;SDS011;10637;47.970;7.830;2023-09-19T19:58:20;11.47;;;2.33;;
20956;SDS011;10637;47.970;7.830;2023-09-19T20:03:23;8.20;;;2.20;;
20956;SDS011;10637;47.970;7.830;2023-09-19T20:08:26;10.07;;;2.53;;
20956;SDS011;10637;47.970;7.830;2023-09-19T20:13:29;7.60;;;2.00;;
20956;SDS011;10637;47.970;7.830;2023-09-19T20:18:32;9.13;;;2.10;;
20956;SDS011;10637;47.970;7.830;2023-09-19T20:23:37;8.60;;;1.87;;
20956;SDS011;10637;47.970;7.830;2023-09-19T20:28:39;10.47;;;2.33;;
20956;SDS011;10637;47.970;7.830;2023-09-19T20:33:42;9.40;;;2.37;;
20956;SDS011;10637;47.970;7.830;2023-09-19T20:38:43;8.73;;;2.30;;
20956;SDS011;10637;47.970;7.830;2023-09-19T20:43:45;9.67;;;2.20;;
20956;SDS011;10637;47.970;7.830;2023-09-19T20:48:47;8.27;;;1.93;;
20956;SDS011;10637;47.970;7.830;2023-09-19T20:53:50;10.40;;;2.00;;
20956;SDS011;10637;47.970;7.830;2023-09-19T20:58:55;6.90;;;1.90;;
20956;SDS011;10637;47.970;7.830;2023-09-19T21:03:56;8.67;;;2.07;;
20956;SDS011;10637;47.970;7.830;2023-09-19T21:08:59;8.07;;;2.10;;
20956;SDS011;10637;47.970;7.830;2023-09-19T21:14:01;7.03;;;2.07;;
20956;SDS011;10637;47.970;7.830;2023-09-19T21:19:05;9.03;;;2.17;;
20956;SDS011;10637;47.970;7.830;2023-09-19T21:24:09;10.43;;;2.07;;
20956;SDS011;10637;47.970;7.830;2023-09-19T21:29:12;12.30;;;2.90;;
20956;SDS011;10637;47.970;7.830;2023-09-19T21:34:14;8.27;;;2.03;;
20956;SDS011;10637;47.970;7.830;2023-09-19T21:39:16;7.18;;;2.13;;
20956;SDS011;10637;47.970;7.830;2023-09-19T21:44:18;9.80;;;2.23;;
20956;SDS011;10637;47.970;7.830;2023-09-19T21:49:20;11.07;;;2.40;;
20956;SDS011;10637;47.970;7.830;2023-09-19T21:54:22;8.00;;;2.00;;
20956;SDS011;10637;47.970;7.830;2023-09-19T21:59:24;8.50;;;2.10;;
20956;SDS011;10637;47.970;7.830;2023-09-19T22:04:26;9.20;;;2.20;;
20956;SDS011;10637;47.970;7.830;2023-09-19T22:09:28;7.83;;;2.30;;
20956;SDS011;10637;47.970;7.830;2023-09-19T22:14:30;8.27;;;2.30;;
20956;SDS011;10637;47.970;7.830;2023-09-19T22:19:33;9.20;;;2.40;;
20956;SDS011;10637;47.970;7.830;2023-09-19T22:24:40;9.23;;;2.33;;
20956;SDS011;10637;47.970;7.830;2023-09-19T22:29:41;8.47;;;2.27;;
20956;SDS011;10637;47.970;7.830;2023-09-19T22:34:45;9.43;;;2.33;;
20956;SDS011;10637;47.970;7.830;2023-09-19T22:39:47;8.70;;;2.47;;
20956;SDS011;10637;47.970;7.830;2023-09-19T22:44:49;7.50;;;1.87;;
20956;SDS011;10637;47.970;7.830;2023-09-19T22:49:54;7.47;;;2.07;;
20956;SDS011;10637;47.970;7.830;2023-09-19T22:54:55;7.43;;;1.80;;
20956;SDS011;10637;47.970;7.830;2023-09-19T22:59:59;8.70;;;1.93;;
20956;SDS011;10637;47.970;7.830;2023-09-19T23:05:01;8.60;;;2.00;;
20956;SDS011;10637;47.970;7.830;2023-09-19T23:10:08;8.53;;;2.10;;
20956;SDS011;10637;47.970;7.830;2023-09-19T23:15:11;8.10;;;1.80;;
20956;SDS011;10637;47.970;7.830;2023-09-19T23:20:18;7.73;;;1.50;;
20956;SDS011;10637;47.970;7.830;2023-09-19T23:25:20;12.90;;;2.00;;
20956;SDS011;10637;47.970;7.830;2023-09-19T23:30:29;9.00;;;1.73;;
20956;SDS011;10637;47.970;7.830;2023-09-19T23:35:33;7.77;;;1.67;;
20956;SDS011;10637;47.970;7.830;2023-09-19T23:40:35;7.77;;;1.60;;
20956;SDS011;10637;47.970;7.830;2023-09-19T23:45:40;7.53;;;1.90;;
20956;SDS011;10637;47.970;7.830;2023-09-19T23:50:43;7.10;;;1.90;;
20956;SDS011;10637;47.970;7.830;2023-09-19T23:55:48;7.00;;;1.60;;
